Terminal Aerodrome Forecast
Issued by NWS

Home | Current Version | Previous Version | Text Only | Print | Product List | Glossary On
Versions: 1 2 3 4 5 6 7 8 9 10 11 12 13 14 15 16 17
000
FTUS44 KTSA 011800 AAA
TAFBVO
TAF AMD
KBVO 011851Z 0119/0218 19012G17KT P6SM VCTS SCT050CB SCT250
     FM020000 17008KT P6SM SCT100 BKN250
     FM020800 17006KT P6SM VCTS BKN070CB
      TEMPO 0209/0213 4SM TSRA BKN040CB
     FM021400 18013KT P6SM BKN100=

USA.gov is the U.S. government's official web portal to all federal, state and local government web resources and services.